Time;durP1;ratioP1;P1;durP2;ratioP2;P2;SDS_P1;SDS_P2;PMS_P1;PMS_P2;Temp;Humidity;BMP_temperature;BMP_pressure;BME280_temperature;BME280_humidity;BME280_pressure;Samples;Min_cycle;Max_cycle;Signal;HPM_P1;HPM_P2
2023/07/18 00:01:02;;;;;;;3.10;1.40;;;;;;;20.77;47.06;99709.22;7195888;40;20321;31
2023/07/18 00:06:41;;;;;;;2.08;1.40;;;;;;;20.59;48.87;99709.97;7268165;40;20319;31
2023/07/18 00:11:56;;;;;;;4.23;1.87;;;;;;;20.45;47.87;99711.91;7240820;40;20273;31
2023/07/18 00:17:15;;;;;;;3.17;1.75;;;;;;;20.38;48.41;99713.00;7260293;40;20466;31
2023/07/18 00:27:54;;;;;;;2.53;1.50;;;;;;;20.27;49.65;99728.22;7276275;40;20273;31
2023/07/18 00:38:20;;;;;;;5.00;1.80;;;;;;;20.05;49.27;99732.28;7331209;39;20363;31
2023/07/18 00:49:00;;;;;;;3.00;1.50;;;;;;;20.15;48.98;99732.66;7316698;39;20261;31
2023/07/18 00:59:39;;;;;;;4.60;1.60;;;;;;;19.85;49.60;99736.94;7252723;40;20269;31
2023/07/18 01:05:16;;;;;;;2.03;1.50;;;;;;;19.86;50.36;99733.16;7192005;40;20262;31
2023/07/18 01:10:47;;;;;;;2.67;1.57;;;;;;;19.85;50.91;99726.00;7004250;40;20235;31
2023/07/18 01:16:22;;;;;;;2.33;1.30;;;;;;;19.87;51.12;99723.91;7175706;40;20285;31
2023/07/18 01:21:58;;;;;;;4.00;1.50;;;;;;;19.76;51.28;99717.16;7105509;40;20247;31
2023/07/18 01:27:36;;;;;;;5.05;1.60;;;;;;;19.51;51.86;99719.72;7134957;40;20329;31
2023/07/18 01:33:06;;;;;;;5.78;1.67;;;;;;;19.32;51.47;99707.72;7115685;40;20264;31
2023/07/18 01:38:41;;;;;;;3.77;1.80;;;;;;;19.40;51.88;99712.13;7145763;40;20315;31
2023/07/18 01:44:01;;;;;;;4.40;1.90;;;;;;;19.60;50.39;99698.47;7100478;41;20268;31
2023/07/18 01:49:22;;;;;;;3.70;2.00;;;;;;;19.55;51.01;99698.28;7180295;40;20363;31
2023/07/18 01:54:58;;;;;;;6.05;2.40;;;;;;;19.28;52.49;99691.94;7229194;40;20358;31
2023/07/18 02:06:31;;;;;;;3.20;1.90;;;;;;;19.22;52.73;99681.84;7296728;39;20319;31
2023/07/18 02:12:07;;;;;;;5.63;2.47;;;;;;;19.30;52.08;99684.38;7254846;40;20573;31
2023/07/18 02:17:27;;;;;;;4.40;2.33;;;;;;;19.33;52.71;99695.72;7293040;39;20349;31
2023/07/18 02:23:00;;;;;;;4.90;2.27;;;;;;;19.21;53.34;99691.97;7213859;40;20321;31
2023/07/18 02:28:35;;;;;;;3.77;2.20;;;;;;;18.87;53.83;99679.31;7205943;40;20297;31
2023/07/18 02:33:57;;;;;;;4.75;2.40;;;;;;;18.64;54.36;99681.59;7194580;40;20246;31
2023/07/18 02:39:12;;;;;;;3.60;2.05;;;;;;;18.58;54.87;99692.47;7200435;40;20369;31
2023/07/18 02:44:48;;;;;;;4.70;2.37;;;;;;;18.47;55.60;99689.25;7221728;40;20365;31
2023/07/18 02:50:23;;;;;;;3.00;1.95;;;;;;;18.49;55.07;99686.34;7231118;40;20324;31
2023/07/18 02:55:43;;;;;;;2.95;2.00;;;;;;;18.73;54.10;99691.28;7272714;40;20269;31
2023/07/18 03:01:19;;;;;;;3.70;2.30;;;;;;;18.76;54.64;99688.13;7252063;40;20710;31
2023/07/18 03:06:36;;;;;;;5.50;2.20;;;;;;;18.80;54.54;99700.31;7252505;40;20285;31
2023/07/18 03:17:16;;;;;;;4.25;2.60;;;;;;;18.68;54.96;99695.66;7251040;40;20371;31
2023/07/18 03:27:41;;;;;;;4.75;2.45;;;;;;;18.56;55.38;99697.31;7275464;40;20410;31
2023/07/18 03:33:16;;;;;;;3.80;2.53;;;;;;;18.56;55.88;99691.88;7253591;40;20293;31
2023/07/18 03:43:56;;;;;;;7.03;3.00;;;;;;;18.62;55.56;99699.22;7252175;40;20281;31
2023/07/18 03:49:29;;;;;;;4.33;2.70;;;;;;;18.64;55.26;99689.78;7220623;40;20264;31
2023/07/18 04:00:12;;;;;;;5.37;3.00;;;;;;;18.54;55.95;99685.75;7194050;40;20446;31
2023/07/18 04:05:41;;;;;;;4.00;2.60;;;;;;;18.40;56.32;99684.84;7226782;40;20284;31
2023/07/18 04:11:12;;;;;;;3.53;2.43;;;;;;;18.34;56.67;99685.69;7249365;40;20260;31
2023/07/18 04:16:47;;;;;;;4.80;2.40;;;;;;;18.26;55.83;99686.66;7232476;40;20368;31
2023/07/18 04:22:23;;;;;;;4.43;2.43;;;;;;;18.27;57.15;99676.59;7221275;40;20281;31
2023/07/18 04:27:58;;;;;;;4.13;2.73;;;;;;;18.20;57.67;99684.78;7144666;40;20271;31
2023/07/18 04:33:33;;;;;;;3.30;2.43;;;;;;;18.09;58.28;99674.44;7222658;40;20257;31
2023/07/18 04:39:10;;;;;;;3.23;2.60;;;;;;;18.03;58.95;99675.25;7235386;40;20350;31
2023/07/18 04:44:44;;;;;;;4.27;2.80;;;;;;;18.10;58.62;99667.94;7187067;40;20246;31
2023/07/18 04:50:18;;;;;;;3.93;2.80;;;;;;;18.12;58.44;99665.00;7201107;40;20375;31
2023/07/18 04:55:51;;;;;;;7.00;2.83;;;;;;;18.24;58.05;99668.84;7231209;40;20269;31
2023/07/18 05:01:28;;;;;;;3.73;2.70;;;;;;;18.32;57.73;99664.03;7179149;40;20363;31
2023/07/18 05:06:59;;;;;;;5.37;2.90;;;;;;;18.32;58.20;99657.72;7175041;40;20296;31
2023/07/18 05:12:35;;;;;;;3.73;2.90;;;;;;;18.46;57.71;99654.84;7231498;40;20285;31
2023/07/18 05:18:10;;;;;;;4.20;2.70;;;;;;;18.66;57.96;99649.44;7157262;40;20283;31
2023/07/18 05:28:46;;;;;;;6.33;3.00;;;;;;;18.98;57.30;99647.78;7186440;40;20249;31
2023/07/18 05:34:22;;;;;;;3.83;2.60;;;;;;;19.15;57.41;99640.84;7203225;40;20256;31
2023/07/18 05:39:38;;;;;;;6.07;2.70;;;;;;;19.28;56.61;99631.81;7274937;40;22044;31
2023/07/18 05:45:15;;;;;;;6.63;2.60;;;;;;;19.47;56.33;99628.25;7258762;40;20249;31
2023/07/18 05:50:50;;;;;;;5.70;2.80;;;;;;;19.63;56.28;99633.25;7232747;40;20246;31
2023/07/18 05:56:25;;;;;;;4.85;3.25;;;;;;;19.84;55.12;99623.06;7214400;40;20317;31
2023/07/18 06:01:59;;;;;;;5.13;3.57;;;;;;;19.89;54.62;99626.00;7188089;40;20329;31
2023/07/18 06:07:35;;;;;;;6.87;2.87;;;;;;;19.94;55.17;99624.31;7193973;40;21345;31
2023/07/18 06:13:10;;;;;;;4.55;3.15;;;;;;;19.92;54.83;99622.84;7204470;40;20265;31
2023/07/18 06:18:44;;;;;;;7.07;3.20;;;;;;;20.10;54.29;99621.06;7214533;40;20250;31
2023/07/18 06:24:19;;;;;;;4.73;2.87;;;;;;;20.38;55.80;99617.19;7187877;40;20290;31
2023/07/18 06:34:57;;;;;;;4.30;2.90;;;;;;;20.73;51.62;99612.09;7191343;40;20714;31
2023/07/18 06:40:29;;;;;;;5.97;2.93;;;;;;;20.97;52.53;99611.28;7201089;40;20371;31
2023/07/18 06:46:01;;;;;;;6.57;3.00;;;;;;;21.12;50.73;99606.28;7230098;40;20366;31
2023/07/18 06:51:34;;;;;;;6.05;2.90;;;;;;;21.20;51.23;99602.44;7257872;40;20412;31
2023/07/18 06:57:06;;;;;;;4.60;2.58;;;;;;;21.32;49.91;99597.94;7193130;40;20301;31
2023/07/18 07:02:38;;;;;;;5.62;3.10;;;;;;;21.51;49.79;99589.47;7186141;40;20254;31
2023/07/18 07:08:12;;;;;;;4.82;2.62;;;;;;;21.56;49.16;99597.87;7135071;40;20278;31
2023/07/18 07:13:44;;;;;;;5.20;2.77;;;;;;;21.81;49.45;99596.94;7164630;40;20249;31
2023/07/18 07:19:15;;;;;;;4.22;2.70;;;;;;;21.99;49.01;99594.22;7201286;40;20262;31
2023/07/18 07:24:46;;;;;;;3.62;2.60;;;;;;;22.30;48.80;99584.91;7187790;40;20278;31
2023/07/18 07:30:19;;;;;;;6.73;2.90;;;;;;;22.35;47.91;99576.81;7192998;40;20246;31
2023/07/18 07:35:51;;;;;;;4.15;2.70;;;;;;;22.50;47.58;99569.00;7154183;40;20274;31
2023/07/18 07:41:24;;;;;;;7.10;2.80;;;;;;;22.77;47.67;99558.47;7003357;40;22092;31
2023/07/18 07:46:44;;;;;;;6.40;3.15;;;;;;;22.85;46.48;99558.13;7164008;40;20471;31
2023/07/18 07:52:16;;;;;;;4.25;2.65;;;;;;;23.04;46.85;99545.91;7178251;40;20278;31
2023/07/18 08:02:54;;;;;;;3.30;2.60;;;;;;;23.31;46.02;99536.09;7213709;40;20284;31
2023/07/18 08:13:17;;;;;;;6.00;2.70;;;;;;;23.86;44.99;99537.59;7251231;40;21360;31
2023/07/18 08:23:56;;;;;;;5.53;2.80;;;;;;;24.10;43.38;99528.13;7285092;39;21274;31
2023/07/18 08:29:16;;;;;;;3.60;2.50;;;;;;;24.36;42.58;99519.28;7278665;39;20257;31
2023/07/18 08:34:51;;;;;;;4.07;2.60;;;;;;;24.53;41.60;99506.37;7279454;39;20310;31
2023/07/18 08:40:25;;;;;;;6.10;2.55;;;;;;;24.63;42.44;99486.41;7236105;40;20246;31
2023/07/18 08:46:00;;;;;;;3.97;2.40;;;;;;;24.91;42.42;99494.62;7212900;40;20344;31
2023/07/18 08:51:35;;;;;;;5.80;2.60;;;;;;;25.13;42.10;99481.72;7236741;40;20355;31
2023/07/18 08:57:04;;;;;;;5.03;2.57;;;;;;;25.17;42.16;99472.94;7224182;40;20250;31
2023/07/18 09:02:37;;;;;;;6.68;2.50;;;;;;;25.41;40.24;99477.94;7229735;40;20281;31
2023/07/18 09:13:14;;;;;;;4.80;2.60;;;;;;;25.66;40.49;99460.91;7289221;39;20280;31
2023/07/18 09:23:52;;;;;;;7.07;2.50;;;;;;;25.91;39.86;99477.75;7223740;40;20459;31
2023/07/18 09:29:25;;;;;;;6.30;2.40;;;;;;;25.75;39.75;99495.28;7295229;39;20360;31
2023/07/18 09:35:04;;;;;;;4.22;2.40;;;;;;;26.12;39.19;99505.59;7273853;40;20240;31
2023/07/18 09:40:39;;;;;;;4.28;2.17;;;;;;;25.90;40.00;99509.25;7251412;40;20296;31
2023/07/18 09:46:14;;;;;;;4.90;2.57;;;;;;;25.93;38.17;99511.47;7222957;40;20281;31
2023/07/18 09:51:46;;;;;;;3.10;2.15;;;;;;;25.94;39.00;99488.28;7214961;40;20238;31
2023/07/18 09:57:22;;;;;;;4.10;2.60;;;;;;;25.69;39.34;99504.56;7214276;40;20250;31
2023/07/18 10:02:54;;;;;;;6.18;2.50;;;;;;;25.82;39.70;99493.13;7196967;40;20246;31
2023/07/18 10:08:29;;;;;;;4.00;2.22;;;;;;;25.85;39.64;99461.38;7173309;40;20374;31
2023/07/18 10:14:29;;;;;;;5.03;2.27;;;;;;;25.86;39.78;99411.41;7173464;40;20247;31
2023/07/18 10:20:06;;;;;;;5.10;2.47;;;;;;;25.89;39.17;99328.00;7205302;40;20282;31
2023/07/18 10:25:42;;;;;;;3.87;2.30;;;;;;;25.94;38.82;99361.22;7214521;40;20301;31
2023/07/18 10:31:15;;;;;;;4.80;2.25;;;;;;;26.20;38.13;99375.22;7161166;40;20291;31
2023/07/18 10:36:50;;;;;;;4.95;2.50;;;;;;;26.32;38.68;99357.44;7155095;40;20251;31
2023/07/18 10:42:20;;;;;;;3.47;2.28;;;;;;;26.46;38.54;99374.38;7152851;40;20293;31
2023/07/18 10:52:57;;;;;;;3.67;2.00;;;;;;;26.82;37.06;99398.41;7201792;40;21189;31
2023/07/18 11:03:35;;;;;;;8.10;2.20;;;;;;;26.50;37.28;99421.69;7261994;39;21188;31
2023/07/18 11:09:07;;;;;;;3.05;2.20;;;;;;;26.54;37.79;99426.44;7235311;40;20251;31
2023/07/18 11:14:44;;;;;;;4.03;2.33;;;;;;;26.70;37.31;99424.59;7203991;40;20448;31
2023/07/18 11:20:18;;;;;;;6.00;2.20;;;;;;;27.20;36.48;99404.75;7258209;40;20257;31
2023/07/18 11:25:55;;;;;;;3.60;2.05;;;;;;;27.39;36.17;99383.75;7290230;39;20532;31
2023/07/18 11:31:33;;;;;;;5.62;2.22;;;;;;;27.68;36.43;99342.62;7232914;40;20677;31
2023/07/18 11:37:06;;;;;;;2.80;2.00;;;;;;;27.95;36.55;99321.00;7193033;40;20255;31
2023/07/18 11:43:00;;;;;;;6.54;2.64;;;;;;;27.78;36.56;99309.34;7138808;40;20324;31
2023/07/18 11:48:35;;;;;;;7.45;2.45;;;;;;;27.81;35.34;99294.97;7210636;40;20253;31
2023/07/18 11:54:05;;;;;;;3.23;2.10;;;;;;;27.69;36.12;99272.22;7189027;40;20293;31
2023/07/18 12:04:42;;;;;;;3.15;2.20;;;;;;;28.20;35.53;99243.41;7147326;40;20657;31
2023/07/18 12:15:18;;;;;;;3.80;2.08;;;;;;;28.20;35.05;99221.25;7271003;40;21626;31
2023/07/18 12:25:55;;;;;;;3.23;2.30;;;;;;;28.84;35.37;99228.78;7248963;40;21296;31
2023/07/18 12:36:16;;;;;;;4.40;2.40;;;;;;;29.01;34.56;99225.66;7207555;40;21241;31
2023/07/18 12:46:52;;;;;;;4.30;2.70;;;;;;;29.28;34.87;99195.50;7287879;39;20410;31
2023/07/18 12:52:28;;;;;;;7.30;2.75;;;;;;;29.34;33.31;99179.66;7272529;40;20252;31
2023/07/18 12:57:59;;;;;;;3.87;2.57;;;;;;;29.15;34.68;99173.91;7252265;40;20261;31
2023/07/18 13:03:32;;;;;;;5.80;3.05;;;;;;;29.14;33.76;99144.50;7236121;40;20323;31
2023/07/18 13:09:07;;;;;;;3.08;2.47;;;;;;;29.42;33.02;99135.41;7174340;40;20253;31
2023/07/18 13:14:24;;;;;;;6.80;2.70;;;;;;;29.66;33.68;99137.44;7177267;40;20261;31
2023/07/18 13:19:56;;;;;;;5.68;2.94;;;;;;;29.63;34.21;99147.16;7185434;40;20250;31
2023/07/18 13:25:16;;;;;;;4.25;2.30;;;;;;;29.66;33.23;99162.44;7190274;40;20282;31
2023/07/18 13:30:48;;;;;;;5.06;2.34;;;;;;;29.71;34.18;99170.72;7217927;40;20292;31
2023/07/18 13:36:21;;;;;;;3.45;2.40;;;;;;;29.74;33.71;99164.59;7233653;40;20383;31
2023/07/18 13:41:38;;;;;;;3.96;2.60;;;;;;;30.05;34.08;99162.34;7224040;40;20283;31
2023/07/18 13:47:10;;;;;;;4.82;2.95;;;;;;;30.03;33.53;99157.06;7248617;40;20375;31
2023/07/18 13:57:47;;;;;;;3.78;2.65;;;;;;;29.64;34.65;99143.28;7239947;40;21247;31
2023/07/18 14:08:27;;;;;;;3.05;2.20;;;;;;;30.06;33.56;99134.22;7213990;40;20273;31
2023/07/18 14:14:02;;;;;;;5.14;2.78;;;;;;;29.94;33.48;99128.25;7232000;40;20281;31
2023/07/18 14:24:26;;;;;;;4.70;2.90;;;;;;;30.10;32.14;99110.31;7237000;40;20269;31
2023/07/18 14:35:04;;;;;;;4.68;2.70;;;;;;;30.16;33.16;99094.34;7269687;40;20264;31
2023/07/18 14:40:39;;;;;;;6.98;2.54;;;;;;;30.07;33.08;99076.66;7233113;40;20386;31
2023/07/18 14:46:11;;;;;;;2.95;2.47;;;;;;;30.31;33.59;99053.28;7231922;40;21143;31
2023/07/18 14:51:47;;;;;;;4.65;2.60;;;;;;;30.51;31.78;99049.41;7004774;40;21291;31
2023/07/18 14:57:07;;;;;;;5.22;2.45;;;;;;;30.59;32.05;99040.37;7221692;40;20407;31
2023/07/18 15:07:43;;;;;;;4.80;2.50;;;;;;;30.58;31.15;99024.84;7241893;40;20380;31
2023/07/18 15:13:00;;;;;;;4.32;2.24;;;;;;;30.50;31.48;99019.91;7235723;40;20257;31
2023/07/18 15:18:18;;;;;;;4.23;2.60;;;;;;;30.58;32.30;99018.44;7265541;39;21456;31
2023/07/18 15:23:49;;;;;;;3.03;2.60;;;;;;;30.49;32.34;99004.38;7296986;40;20345;31
2023/07/18 15:29:24;;;;;;;4.40;2.55;;;;;;;30.46;31.97;99006.91;7245951;40;20304;31
2023/07/18 15:40:02;;;;;;;3.65;2.97;;;;;;;30.32;31.52;98993.72;7229519;40;20981;31
2023/07/18 15:50:27;;;;;;;4.40;2.40;;;;;;;30.26;31.12;98978.25;7263259;39;20288;31
2023/07/18 15:55:59;;;;;;;8.25;2.67;;;;;;;30.14;30.74;98979.84;7238264;40;20258;31
2023/07/18 16:01:31;;;;;;;7.72;2.98;;;;;;;30.16;30.76;98967.25;7240380;40;20261;31
2023/07/18 16:07:00;;;;;;;6.45;2.80;;;;;;;30.27;31.25;98962.41;7194068;40;20410;31
2023/07/18 16:12:36;;;;;;;5.93;2.62;;;;;;;30.07;30.88;98957.94;7173398;40;20369;31
2023/07/18 16:18:08;;;;;;;4.25;2.30;;;;;;;30.23;31.87;98944.66;7149917;40;20314;31
2023/07/18 16:23:29;;;;;;;3.58;2.50;;;;;;;29.98;31.27;98934.72;7192016;40;20300;31
2023/07/18 16:29:01;;;;;;;3.33;2.42;;;;;;;29.97;31.33;98944.19;7208704;40;20262;31
2023/07/18 16:34:34;;;;;;;5.02;2.48;;;;;;;29.90;31.92;98960.41;7186023;40;20285;31
2023/07/18 16:39:54;;;;;;;8.05;2.70;;;;;;;30.08;31.23;98948.47;7212094;40;20254;31
2023/07/18 16:45:26;;;;;;;3.42;2.62;;;;;;;30.12;32.30;98943.13;7264110;40;20425;31
2023/07/18 16:50:58;;;;;;;4.26;2.18;;;;;;;30.09;32.29;98935.41;7194984;40;20254;31
2023/07/18 16:56:30;;;;;;;2.70;2.40;;;;;;;29.96;31.76;98917.53;7240158;40;20299;31
2023/07/18 17:02:04;;;;;;;3.42;2.33;;;;;;;29.94;32.36;98903.09;7174906;40;20355;31
2023/07/18 17:07:21;;;;;;;4.75;2.60;;;;;;;30.01;33.29;98906.34;7222607;40;20269;31
2023/07/18 17:12:41;;;;;;;3.50;2.50;;;;;;;29.76;33.52;98896.34;7249548;40;20277;31
2023/07/18 17:23:21;;;;;;;4.05;2.80;;;;;;;29.25;33.24;98907.28;7258090;40;20264;31
2023/07/18 17:28:57;;;;;;;4.78;2.47;;;;;;;29.13;33.78;98898.53;7262155;40;20418;31
2023/07/18 17:39:31;;;;;;;5.00;2.50;;;;;;;28.74;37.09;98867.31;7312858;39;20367;31
2023/07/18 17:49:52;;;;;;;5.45;2.87;;;;;;;28.64;36.98;98890.41;7289529;39;21255;31
2023/07/18 17:55:22;;;;;;;9.40;2.70;;;;;;;28.46;37.08;98880.84;7313405;39;20373;31
2023/07/18 18:00:40;;;;;;;5.80;2.30;;;;;;;28.39;37.12;98869.25;7282072;39;20248;31
2023/07/18 18:06:15;;;;;;;7.03;2.83;;;;;;;28.12;37.33;98860.63;7296356;39;20442;31
2023/07/18 18:11:48;;;;;;;4.05;2.75;;;;;;;27.99;39.15;98878.72;7301496;39;20326;31
2023/07/18 18:17:21;;;;;;;6.15;3.25;;;;;;;27.89;39.20;98900.94;7265129;40;20252;31
2023/07/18 18:22:38;;;;;;;5.90;3.40;;;;;;;27.78;40.11;98910.41;7215236;40;20321;31
2023/07/18 18:28:14;;;;;;;6.00;3.27;;;;;;;27.49;42.39;98937.16;7236278;40;20432;31
2023/07/18 18:33:32;;;;;;;5.00;3.10;;;;;;;27.33;42.24;98945.50;7189220;40;20262;31
2023/07/18 18:39:07;;;;;;;6.80;3.35;;;;;;;27.16;43.64;98927.56;7217643;40;20265;31
2023/07/18 18:44:43;;;;;;;4.85;3.50;;;;;;;27.12;43.81;98941.09;7210597;40;20534;31
2023/07/18 18:50:00;;;;;;;5.30;3.40;;;;;;;27.15;43.51;98946.09;7224959;40;20610;31
2023/07/18 18:55:20;;;;;;;13.57;3.60;;;;;;;27.05;43.09;98964.63;7222684;40;20280;31
2023/07/18 19:00:53;;;;;;;4.47;3.20;;;;;;;27.00;43.72;98956.34;7224223;40;20249;31
2023/07/18 19:06:25;;;;;;;5.70;3.20;;;;;;;26.99;43.96;98924.25;7202725;40;20262;31
2023/07/18 19:12:00;;;;;;;5.90;3.20;;;;;;;27.06;43.52;98906.25;7206522;40;20253;31
2023/07/18 19:17:33;;;;;;;6.47;3.10;;;;;;;27.02;43.41;98887.72;7216010;40;20286;31
2023/07/18 19:22:51;;;;;;;3.85;2.95;;;;;;;26.94;43.92;98900.22;7146740;40;20278;31
2023/07/18 19:28:22;;;;;;;7.57;3.47;;;;;;;26.84;44.10;98897.44;7157853;40;20282;31
2023/07/18 19:33:55;;;;;;;6.40;3.40;;;;;;;26.84;43.84;98922.31;7179478;40;20270;31
2023/07/18 19:39:27;;;;;;;4.78;3.20;;;;;;;26.73;44.57;98915.97;7213542;40;20281;31
2023/07/18 19:50:04;;;;;;;6.80;3.50;;;;;;;26.48;45.16;98942.81;7238468;40;21212;31
2023/07/18 20:00:38;;;;;;;5.90;3.60;;;;;;;26.24;46.30;98935.03;7251793;40;20275;31
2023/07/18 20:11:14;;;;;;;5.47;3.33;;;;;;;26.00;46.78;98948.53;7260312;40;21343;31
2023/07/18 20:16:44;;;;;;;4.80;3.20;;;;;;;25.81;47.68;98919.72;7218099;40;20274;31
2023/07/18 20:27:24;;;;;;;5.40;3.10;;;;;;;25.39;48.33;98894.19;7279932;40;20291;31
2023/07/18 20:33:01;;;;;;;6.30;3.50;;;;;;;25.36;47.92;98898.28;7288092;39;20279;31
2023/07/18 20:38:19;;;;;;;3.85;3.00;;;;;;;25.41;48.01;98905.75;7264143;40;20420;31
2023/07/18 20:43:55;;;;;;;5.10;3.35;;;;;;;25.43;48.51;98901.66;7258267;40;20470;31
2023/07/18 20:49:30;;;;;;;4.75;3.30;;;;;;;25.35;48.50;98884.78;7223883;40;20581;31
2023/07/18 20:55:05;;;;;;;7.53;3.67;;;;;;;25.20;49.19;98873.66;7229115;40;20425;31
2023/07/18 21:00:38;;;;;;;6.55;3.42;;;;;;;25.09;48.76;98881.09;7291047;39;20264;31
2023/07/18 21:06:13;;;;;;;4.10;2.95;;;;;;;25.02;48.97;98866.69;7214121;40;20261;31
2023/07/18 21:11:31;;;;;;;6.32;3.40;;;;;;;25.03;47.75;98874.69;7179965;40;20505;31
2023/07/18 21:22:11;;;;;;;5.93;3.50;;;;;;;25.01;48.44;98889.88;7234706;40;21239;31
2023/07/18 21:27:32;;;;;;;6.47;3.37;;;;;;;24.92;48.72;98878.50;7228974;40;20377;31
2023/07/18 21:38:22;;;;;;;5.80;3.40;;;;;;;24.98;49.63;98893.13;7292375;39;21066;31
2023/07/18 21:49:01;;;;;;;6.30;3.80;;;;;;;24.56;51.65;98885.69;7220463;40;20307;31
2023/07/18 21:54:37;;;;;;;7.70;3.85;;;;;;;24.39;52.31;98879.50;7215616;40;20393;31
2023/07/18 22:00:14;;;;;;;8.00;4.10;;;;;;;24.47;52.64;98890.03;7180902;40;20429;31
2023/07/18 22:05:46;;;;;;;9.90;4.25;;;;;;;24.39;52.59;98871.25;6940887;40;20236;31
2023/07/18 22:11:18;;;;;;;4.95;3.60;;;;;;;24.31;53.05;98881.91;7126441;40;20349;31
2023/07/18 22:16:36;;;;;;;7.73;4.00;;;;;;;24.31;52.88;98887.44;7137030;40;20447;31
2023/07/18 22:22:11;;;;;;;5.50;3.70;;;;;;;24.26;53.75;98885.47;7131169;40;20344;31
2023/07/18 22:32:51;;;;;;;8.35;3.90;;;;;;;24.03;54.68;98885.75;7253375;40;21311;31
2023/07/18 22:38:12;;;;;;;7.55;4.10;;;;;;;23.91;54.29;98887.84;7246896;40;20253;31
2023/07/18 22:43:29;;;;;;;6.37;4.00;;;;;;;23.80;54.05;98881.41;7238877;40;20277;31
2023/07/18 22:49:04;;;;;;;5.55;3.75;;;;;;;23.65;54.44;98897.78;7314401;39;20357;31
2023/07/18 22:54:25;;;;;;;6.50;3.83;;;;;;;23.64;54.25;98887.84;7328280;39;20368;31
2023/07/18 23:05:17;;;;;;;4.70;3.40;;;;;;;23.36;56.07;98877.84;7296477;39;21073;31
2023/07/18 23:10:38;;;;;;;8.95;3.75;;;;;;;23.20;55.43;98857.59;7258469;40;20340;31
2023/07/18 23:15:58;;;;;;;5.70;3.35;;;;;;;23.14;55.79;98866.03;7259401;40;20423;31
2023/07/18 23:21:33;;;;;;;3.85;3.20;;;;;;;23.12;55.06;98866.31;7261993;40;20430;31
2023/07/18 23:26:54;;;;;;;3.87;3.20;;;;;;;23.06;55.17;98875.56;7252111;40;20427;31
2023/07/18 23:32:28;;;;;;;5.15;3.50;;;;;;;22.98;55.75;98878.75;7229964;40;20288;31
2023/07/18 23:43:05;;;;;;;5.60;3.55;;;;;;;23.06;55.76;98883.81;7226032;40;21253;31
2023/07/18 23:48:37;;;;;;;4.16;3.40;;;;;;;23.05;56.02;98873.06;7251003;40;20451;31
2023/07/18 23:59:15;;;;;;;5.28;3.65;;;;;;;22.82;55.99;98858.47;7292379;39;21232;31
